Camden On Gauley, West Virginia
Current Conditions -  °F | °C
As of 6:35 AM on Thursday 27 Nov 2014 (Local Time) from KLWB Reporting Station
Light Snow Light Snow  
Wind Chill: 33°   Ceiling: 200
Heat Index: 33°   Visibility: 2mi
Dew Point: 32°   Wind: 0mph
Humidity: 96%   Direction: NA
Pressure: 29.96"   Gusts: NA
Location:  38.37°N, 80.6°W
Report Text: KLWB 271135Z AUTO 00000KT 2SM -SN BKN002 OVC014 01/00 A2996 RMK AO2 T00080002
Loading
Personal Weather Stations






























Interactive Weather Map New forecast layout! Learn more

10-Day Weather Forecast

Advertisements
Track Severe Weather on mobile